sensor_id;sensor_type;location;lat;lon;timestamp;P1;durP1;ratioP1;P2;durP2;ratioP2
15130;SDS011;7666;50.920;4.628;2022-08-05T00:02:15;7.17;;;4.57;;
15130;SDS011;7666;50.920;4.628;2022-08-05T00:05:01;5.27;;;3.93;;
15130;SDS011;7666;50.920;4.628;2022-08-05T00:07:47;5.87;;;4.20;;
15130;SDS011;7666;50.920;4.628;2022-08-05T00:10:33;6.13;;;4.07;;
15130;SDS011;7666;50.920;4.628;2022-08-05T00:13:19;5.97;;;3.60;;
15130;SDS011;7666;50.920;4.628;2022-08-05T00:16:06;8.93;;;3.97;;
15130;SDS011;7666;50.920;4.628;2022-08-05T00:18:53;8.57;;;4.20;;
15130;SDS011;7666;50.920;4.628;2022-08-05T00:21:42;5.87;;;3.53;;
15130;SDS011;7666;50.920;4.628;2022-08-05T00:24:28;5.27;;;3.63;;
15130;SDS011;7666;50.920;4.628;2022-08-05T00:27:14;6.27;;;3.97;;
15130;SDS011;7666;50.920;4.628;2022-08-05T00:30:00;8.87;;;3.70;;
15130;SDS011;7666;50.920;4.628;2022-08-05T00:32:46;6.20;;;3.73;;
15130;SDS011;7666;50.920;4.628;2022-08-05T00:35:33;7.40;;;4.00;;
15130;SDS011;7666;50.920;4.628;2022-08-05T00:38:20;5.40;;;4.17;;
15130;SDS011;7666;50.920;4.628;2022-08-05T00:41:06;8.03;;;4.50;;
15130;SDS011;7666;50.920;4.628;2022-08-05T00:43:52;8.80;;;3.67;;
15130;SDS011;7666;50.920;4.628;2022-08-05T00:46:38;8.27;;;4.50;;
15130;SDS011;7666;50.920;4.628;2022-08-05T00:49:24;8.07;;;4.60;;
15130;SDS011;7666;50.920;4.628;2022-08-05T00:52:10;6.57;;;3.97;;
15130;SDS011;7666;50.920;4.628;2022-08-05T00:54:55;7.73;;;4.40;;
15130;SDS011;7666;50.920;4.628;2022-08-05T00:57:41;8.17;;;4.07;;
15130;SDS011;7666;50.920;4.628;2022-08-05T01:00:28;6.57;;;4.20;;
15130;SDS011;7666;50.920;4.628;2022-08-05T01:03:15;6.23;;;3.90;;
15130;SDS011;7666;50.920;4.628;2022-08-05T01:06:01;4.50;;;4.10;;
15130;SDS011;7666;50.920;4.628;2022-08-05T01:08:47;9.43;;;4.30;;
15130;SDS011;7666;50.920;4.628;2022-08-05T01:11:33;5.40;;;4.00;;
15130;SDS011;7666;50.920;4.628;2022-08-05T01:14:25;7.87;;;4.60;;
15130;SDS011;7666;50.920;4.628;2022-08-05T01:20:29;8.37;;;4.67;;
15130;SDS011;7666;50.920;4.628;2022-08-05T01:26:55;8.90;;;5.57;;
15130;SDS011;7666;50.920;4.628;2022-08-05T01:30:02;7.57;;;5.30;;
15130;SDS011;7666;50.920;4.628;2022-08-05T01:32:50;7.97;;;5.27;;
15130;SDS011;7666;50.920;4.628;2022-08-05T01:35:38;6.50;;;5.00;;
15130;SDS011;7666;50.920;4.628;2022-08-05T01:38:26;7.03;;;4.67;;
15130;SDS011;7666;50.920;4.628;2022-08-05T01:41:13;6.17;;;4.87;;
15130;SDS011;7666;50.920;4.628;2022-08-05T01:44:01;7.77;;;4.77;;
15130;SDS011;7666;50.920;4.628;2022-08-05T01:46:48;7.70;;;5.33;;
15130;SDS011;7666;50.920;4.628;2022-08-05T01:49:34;7.83;;;4.87;;
15130;SDS011;7666;50.920;4.628;2022-08-05T01:52:21;6.70;;;5.00;;
15130;SDS011;7666;50.920;4.628;2022-08-05T01:55:09;6.40;;;4.70;;
15130;SDS011;7666;50.920;4.628;2022-08-05T01:57:57;9.37;;;5.07;;
15130;SDS011;7666;50.920;4.628;2022-08-05T02:00:48;5.97;;;4.77;;
15130;SDS011;7666;50.920;4.628;2022-08-05T02:03:36;6.57;;;5.00;;
15130;SDS011;7666;50.920;4.628;2022-08-05T02:06:25;6.70;;;5.20;;
15130;SDS011;7666;50.920;4.628;2022-08-05T02:09:11;9.30;;;5.30;;
15130;SDS011;7666;50.920;4.628;2022-08-05T02:15:15;9.87;;;4.70;;
15130;SDS011;7666;50.920;4.628;2022-08-05T02:21:35;8.70;;;4.83;;
15130;SDS011;7666;50.920;4.628;2022-08-05T02:24:29;9.30;;;4.93;;
15130;SDS011;7666;50.920;4.628;2022-08-05T02:27:21;5.87;;;4.27;;
15130;SDS011;7666;50.920;4.628;2022-08-05T02:30:09;6.93;;;4.27;;
15130;SDS011;7666;50.920;4.628;2022-08-05T02:32:56;7.00;;;4.60;;
15130;SDS011;7666;50.920;4.628;2022-08-05T02:35:44;5.40;;;4.67;;
15130;SDS011;7666;50.920;4.628;2022-08-05T02:38:30;7.70;;;4.93;;
15130;SDS011;7666;50.920;4.628;2022-08-05T02:41:17;7.73;;;4.83;;
15130;SDS011;7666;50.920;4.628;2022-08-05T02:44:06;5.77;;;4.70;;
15130;SDS011;7666;50.920;4.628;2022-08-05T02:46:54;5.60;;;4.73;;
15130;SDS011;7666;50.920;4.628;2022-08-05T02:49:42;7.43;;;4.70;;
15130;SDS011;7666;50.920;4.628;2022-08-05T02:52:30;7.50;;;4.10;;
15130;SDS011;7666;50.920;4.628;2022-08-05T02:55:17;8.17;;;4.77;;
15130;SDS011;7666;50.920;4.628;2022-08-05T02:58:04;7.77;;;4.80;;
15130;SDS011;7666;50.920;4.628;2022-08-05T03:00:52;6.00;;;4.97;;
15130;SDS011;7666;50.920;4.628;2022-08-05T03:03:41;7.13;;;4.93;;
15130;SDS011;7666;50.920;4.628;2022-08-05T03:06:28;8.57;;;4.70;;
15130;SDS011;7666;50.920;4.628;2022-08-05T03:09:15;7.57;;;5.17;;
15130;SDS011;7666;50.920;4.628;2022-08-05T03:12:02;8.03;;;5.20;;
15130;SDS011;7666;50.920;4.628;2022-08-05T03:14:49;11.93;;;5.60;;
15130;SDS011;7666;50.920;4.628;2022-08-05T03:17:35;7.53;;;5.07;;
15130;SDS011;7666;50.920;4.628;2022-08-05T03:20:22;10.77;;;5.10;;
15130;SDS011;7666;50.920;4.628;2022-08-05T03:23:08;10.07;;;5.10;;
15130;SDS011;7666;50.920;4.628;2022-08-05T03:25:55;12.87;;;5.73;;
15130;SDS011;7666;50.920;4.628;2022-08-05T03:28:41;10.10;;;6.03;;
15130;SDS011;7666;50.920;4.628;2022-08-05T03:31:27;9.80;;;6.20;;
15130;SDS011;7666;50.920;4.628;2022-08-05T03:34:15;10.13;;;6.70;;
15130;SDS011;7666;50.920;4.628;2022-08-05T03:37:02;10.47;;;6.50;;
15130;SDS011;7666;50.920;4.628;2022-08-05T03:39:53;11.00;;;7.10;;
15130;SDS011;7666;50.920;4.628;2022-08-05T03:42:44;10.97;;;7.23;;
15130;SDS011;7666;50.920;4.628;2022-08-05T03:45:30;12.17;;;7.57;;
15130;SDS011;7666;50.920;4.628;2022-08-05T03:48:15;14.63;;;7.17;;
15130;SDS011;7666;50.920;4.628;2022-08-05T03:51:03;11.47;;;7.90;;
15130;SDS011;7666;50.920;4.628;2022-08-05T03:54:16;11.83;;;8.40;;
15130;SDS011;7666;50.920;4.628;2022-08-05T03:57:21;10.77;;;7.87;;
15130;SDS011;7666;50.920;4.628;2022-08-05T04:00:12;11.27;;;7.90;;
15130;SDS011;7666;50.920;4.628;2022-08-05T04:03:00;14.93;;;8.20;;
15130;SDS011;7666;50.920;4.628;2022-08-05T04:05:48;14.53;;;8.23;;
15130;SDS011;7666;50.920;4.628;2022-08-05T04:08:36;15.67;;;8.60;;
15130;SDS011;7666;50.920;4.628;2022-08-05T04:11:22;13.30;;;8.57;;
15130;SDS011;7666;50.920;4.628;2022-08-05T04:14:08;14.43;;;8.50;;
15130;SDS011;7666;50.920;4.628;2022-08-05T04:16:55;13.93;;;8.23;;
15130;SDS011;7666;50.920;4.628;2022-08-05T04:19:41;16.70;;;8.87;;
15130;SDS011;7666;50.920;4.628;2022-08-05T04:22:28;12.80;;;8.03;;
15130;SDS011;7666;50.920;4.628;2022-08-05T04:25:14;17.77;;;7.97;;
15130;SDS011;7666;50.920;4.628;2022-08-05T04:28:00;13.50;;;7.93;;
15130;SDS011;7666;50.920;4.628;2022-08-05T04:30:47;12.57;;;7.80;;
15130;SDS011;7666;50.920;4.628;2022-08-05T04:33:33;11.60;;;7.10;;
15130;SDS011;7666;50.920;4.628;2022-08-05T04:36:19;13.63;;;7.90;;
15130;SDS011;7666;50.920;4.628;2022-08-05T04:39:05;12.80;;;7.10;;
15130;SDS011;7666;50.920;4.628;2022-08-05T04:41:51;10.73;;;6.77;;
15130;SDS011;7666;50.920;4.628;2022-08-05T04:44:37;9.40;;;6.00;;
15130;SDS011;7666;50.920;4.628;2022-08-05T04:47:23;7.80;;;6.13;;
15130;SDS011;7666;50.920;4.628;2022-08-05T04:50:09;10.73;;;6.10;;
15130;SDS011;7666;50.920;4.628;2022-08-05T04:52:55;11.13;;;6.33;;
15130;SDS011;7666;50.920;4.628;2022-08-05T04:55:41;14.03;;;7.10;;
15130;SDS011;7666;50.920;4.628;2022-08-05T04:58:27;11.73;;;6.63;;
15130;SDS011;7666;50.920;4.628;2022-08-05T05:01:13;9.60;;;6.33;;
15130;SDS011;7666;50.920;4.628;2022-08-05T05:03:59;10.87;;;6.23;;
15130;SDS011;7666;50.920;4.628;2022-08-05T05:06:45;14.10;;;6.77;;
15130;SDS011;7666;50.920;4.628;2022-08-05T05:09:31;12.07;;;5.90;;
15130;SDS011;7666;50.920;4.628;2022-08-05T05:12:17;10.27;;;6.10;;
15130;SDS011;7666;50.920;4.628;2022-08-05T05:15:04;10.50;;;6.00;;
15130;SDS011;7666;50.920;4.628;2022-08-05T05:17:50;10.70;;;5.70;;
15130;SDS011;7666;50.920;4.628;2022-08-05T05:20:36;8.87;;;6.30;;
15130;SDS011;7666;50.920;4.628;2022-08-05T05:23:22;13.70;;;7.30;;
15130;SDS011;7666;50.920;4.628;2022-08-05T05:26:08;12.73;;;7.03;;
15130;SDS011;7666;50.920;4.628;2022-08-05T05:28:57;11.40;;;6.80;;
15130;SDS011;7666;50.920;4.628;2022-08-05T05:31:43;11.93;;;6.67;;
15130;SDS011;7666;50.920;4.628;2022-08-05T05:34:29;12.53;;;7.07;;
15130;SDS011;7666;50.920;4.628;2022-08-05T05:37:15;13.27;;;6.80;;
15130;SDS011;7666;50.920;4.628;2022-08-05T05:40:01;13.20;;;6.97;;
15130;SDS011;7666;50.920;4.628;2022-08-05T05:42:48;13.77;;;7.40;;
15130;SDS011;7666;50.920;4.628;2022-08-05T05:45:35;13.73;;;7.57;;
15130;SDS011;7666;50.920;4.628;2022-08-05T05:48:21;12.27;;;7.20;;
15130;SDS011;7666;50.920;4.628;2022-08-05T05:51:07;11.53;;;6.53;;
15130;SDS011;7666;50.920;4.628;2022-08-05T05:53:53;11.83;;;6.90;;
15130;SDS011;7666;50.920;4.628;2022-08-05T05:56:40;13.10;;;6.80;;
15130;SDS011;7666;50.920;4.628;2022-08-05T05:59:26;12.70;;;6.50;;
15130;SDS011;7666;50.920;4.628;2022-08-05T06:02:12;11.40;;;6.63;;
15130;SDS011;7666;50.920;4.628;2022-08-05T06:04:58;14.33;;;7.20;;
15130;SDS011;7666;50.920;4.628;2022-08-05T06:07:44;11.07;;;6.87;;
15130;SDS011;7666;50.920;4.628;2022-08-05T06:10:30;11.93;;;6.57;;
15130;SDS011;7666;50.920;4.628;2022-08-05T06:13:18;13.30;;;6.67;;
15130;SDS011;7666;50.920;4.628;2022-08-05T06:16:04;11.37;;;6.23;;
15130;SDS011;7666;50.920;4.628;2022-08-05T06:18:50;13.07;;;6.27;;
15130;SDS011;7666;50.920;4.628;2022-08-05T06:21:36;13.67;;;6.97;;
15130;SDS011;7666;50.920;4.628;2022-08-05T06:24:22;11.63;;;6.77;;
15130;SDS011;7666;50.920;4.628;2022-08-05T06:27:08;10.73;;;6.67;;
15130;SDS011;7666;50.920;4.628;2022-08-05T06:29:53;12.00;;;7.13;;
15130;SDS011;7666;50.920;4.628;2022-08-05T06:32:40;11.57;;;6.60;;
15130;SDS011;7666;50.920;4.628;2022-08-05T06:35:27;10.13;;;6.77;;
15130;SDS011;7666;50.920;4.628;2022-08-05T06:38:13;11.90;;;7.00;;
15130;SDS011;7666;50.920;4.628;2022-08-05T06:40:59;13.20;;;6.33;;
15130;SDS011;7666;50.920;4.628;2022-08-05T06:43:46;14.17;;;6.50;;
15130;SDS011;7666;50.920;4.628;2022-08-05T06:46:33;9.10;;;6.17;;
15130;SDS011;7666;50.920;4.628;2022-08-05T06:49:19;9.47;;;6.03;;
15130;SDS011;7666;50.920;4.628;2022-08-05T06:52:05;8.83;;;5.73;;
15130;SDS011;7666;50.920;4.628;2022-08-05T07:32:17;10.60;;;5.67;;
15130;SDS011;7666;50.920;4.628;2022-08-05T07:35:06;8.00;;;5.00;;
15130;SDS011;7666;50.920;4.628;2022-08-05T07:37:53;9.20;;;5.30;;
15130;SDS011;7666;50.920;4.628;2022-08-05T07:40:39;8.00;;;4.87;;
15130;SDS011;7666;50.920;4.628;2022-08-05T07:43:25;9.23;;;5.13;;
15130;SDS011;7666;50.920;4.628;2022-08-05T07:46:11;9.70;;;5.33;;
15130;SDS011;7666;50.920;4.628;2022-08-05T07:48:57;8.20;;;4.60;;
15130;SDS011;7666;50.920;4.628;2022-08-05T07:51:46;9.50;;;4.63;;
15130;SDS011;7666;50.920;4.628;2022-08-05T07:54:32;9.07;;;4.27;;
15130;SDS011;7666;50.920;4.628;2022-08-05T07:57:18;6.30;;;4.37;;
15130;SDS011;7666;50.920;4.628;2022-08-05T08:00:04;10.40;;;4.50;;
15130;SDS011;7666;50.920;4.628;2022-08-05T08:02:51;6.60;;;4.17;;
15130;SDS011;7666;50.920;4.628;2022-08-05T08:05:37;7.63;;;3.90;;
15130;SDS011;7666;50.920;4.628;2022-08-05T08:08:24;7.77;;;4.10;;
15130;SDS011;7666;50.920;4.628;2022-08-05T08:11:10;12.67;;;3.90;;
15130;SDS011;7666;50.920;4.628;2022-08-05T08:13:56;9.40;;;4.17;;
15130;SDS011;7666;50.920;4.628;2022-08-05T08:16:41;8.67;;;3.97;;
15130;SDS011;7666;50.920;4.628;2022-08-05T08:19:27;9.63;;;4.10;;
15130;SDS011;7666;50.920;4.628;2022-08-05T08:22:13;8.47;;;3.80;;
15130;SDS011;7666;50.920;4.628;2022-08-05T08:24:59;8.40;;;3.90;;
15130;SDS011;7666;50.920;4.628;2022-08-05T08:27:45;6.17;;;3.33;;
15130;SDS011;7666;50.920;4.628;2022-08-05T08:30:31;6.67;;;3.37;;
15130;SDS011;7666;50.920;4.628;2022-08-05T08:33:17;8.87;;;3.03;;
15130;SDS011;7666;50.920;4.628;2022-08-05T08:36:04;8.23;;;3.20;;
15130;SDS011;7666;50.920;4.628;2022-08-05T08:38:53;7.00;;;2.90;;
15130;SDS011;7666;50.920;4.628;2022-08-05T08:41:40;8.43;;;3.40;;
15130;SDS011;7666;50.920;4.628;2022-08-05T08:44:28;8.47;;;3.53;;
15130;SDS011;7666;50.920;4.628;2022-08-05T08:47:15;8.83;;;3.10;;
15130;SDS011;7666;50.920;4.628;2022-08-05T08:50:06;5.93;;;2.40;;
15130;SDS011;7666;50.920;4.628;2022-08-05T08:52:57;9.53;;;2.43;;
15130;SDS011;7666;50.920;4.628;2022-08-05T08:55:47;6.63;;;2.30;;
15130;SDS011;7666;50.920;4.628;2022-08-05T08:58:33;6.50;;;2.60;;
15130;SDS011;7666;50.920;4.628;2022-08-05T09:01:20;4.93;;;2.10;;
15130;SDS011;7666;50.920;4.628;2022-08-05T09:04:06;5.60;;;1.97;;
15130;SDS011;7666;50.920;4.628;2022-08-05T09:06:53;5.30;;;2.20;;
15130;SDS011;7666;50.920;4.628;2022-08-05T09:09:39;6.30;;;1.90;;
15130;SDS011;7666;50.920;4.628;2022-08-05T09:12:25;3.80;;;1.70;;
15130;SDS011;7666;50.920;4.628;2022-08-05T09:15:11;6.30;;;1.80;;
15130;SDS011;7666;50.920;4.628;2022-08-05T09:17:57;9.47;;;2.17;;
15130;SDS011;7666;50.920;4.628;2022-08-05T09:20:43;4.57;;;2.13;;
15130;SDS011;7666;50.920;4.628;2022-08-05T09:23:31;6.30;;;2.43;;
15130;SDS011;7666;50.920;4.628;2022-08-05T09:26:17;4.30;;;2.30;;
15130;SDS011;7666;50.920;4.628;2022-08-05T09:29:06;4.50;;;2.00;;
15130;SDS011;7666;50.920;4.628;2022-08-05T09:32:02;5.33;;;2.23;;
15130;SDS011;7666;50.920;4.628;2022-08-05T09:34:53;5.40;;;2.40;;
15130;SDS011;7666;50.920;4.628;2022-08-05T09:37:49;4.40;;;1.97;;
15130;SDS011;7666;50.920;4.628;2022-08-05T09:40:38;3.83;;;1.80;;
15130;SDS011;7666;50.920;4.628;2022-08-05T09:43:29;2.90;;;1.30;;
15130;SDS011;7666;50.920;4.628;2022-08-05T09:46:29;3.13;;;1.20;;
15130;SDS011;7666;50.920;4.628;2022-08-05T09:49:23;4.37;;;1.67;;
15130;SDS011;7666;50.920;4.628;2022-08-05T09:52:19;3.30;;;1.30;;
15130;SDS011;7666;50.920;4.628;2022-08-05T09:55:18;4.93;;;1.70;;
15130;SDS011;7666;50.920;4.628;2022-08-05T09:58:11;1.90;;;1.20;;
15130;SDS011;7666;50.920;4.628;2022-08-05T10:01:03;5.33;;;1.63;;
15130;SDS011;7666;50.920;4.628;2022-08-05T10:03:54;4.07;;;1.40;;
15130;SDS011;7666;50.920;4.628;2022-08-05T10:06:42;3.03;;;1.30;;
15130;SDS011;7666;50.920;4.628;2022-08-05T10:09:40;4.97;;;1.50;;
15130;SDS011;7666;50.920;4.628;2022-08-05T10:15:33;2.60;;;1.30;;
15130;SDS011;7666;50.920;4.628;2022-08-05T10:18:20;1.97;;;1.23;;
15130;SDS011;7666;50.920;4.628;2022-08-05T10:21:07;5.13;;;1.87;;
15130;SDS011;7666;50.920;4.628;2022-08-05T10:23:53;3.13;;;1.20;;
15130;SDS011;7666;50.920;4.628;2022-08-05T10:26:40;2.57;;;1.40;;
15130;SDS011;7666;50.920;4.628;2022-08-05T10:29:27;6.37;;;1.30;;
15130;SDS011;7666;50.920;4.628;2022-08-05T10:32:16;4.23;;;1.30;;
15130;SDS011;7666;50.920;4.628;2022-08-05T10:35:02;2.90;;;1.30;;
15130;SDS011;7666;50.920;4.628;2022-08-05T10:37:48;5.43;;;1.33;;
15130;SDS011;7666;50.920;4.628;2022-08-05T10:43:45;6.67;;;1.57;;
15130;SDS011;7666;50.920;4.628;2022-08-05T10:46:51;4.13;;;1.30;;
15130;SDS011;7666;50.920;4.628;2022-08-05T10:52:53;5.37;;;1.10;;
15130;SDS011;7666;50.920;4.628;2022-08-05T10:56:00;3.70;;;1.57;;
15130;SDS011;7666;50.920;4.628;2022-08-05T11:01:38;3.00;;;1.60;;
15130;SDS011;7666;50.920;4.628;2022-08-05T11:04:26;5.63;;;1.80;;
15130;SDS011;7666;50.920;4.628;2022-08-05T11:07:16;2.90;;;1.50;;
15130;SDS011;7666;50.920;4.628;2022-08-05T11:10:03;5.20;;;1.90;;
15130;SDS011;7666;50.920;4.628;2022-08-05T11:12:49;7.80;;;1.70;;
15130;SDS011;7666;50.920;4.628;2022-08-05T11:15:36;2.93;;;1.83;;
15130;SDS011;7666;50.920;4.628;2022-08-05T11:18:28;3.43;;;1.43;;
15130;SDS011;7666;50.920;4.628;2022-08-05T11:21:29;4.73;;;1.40;;
15130;SDS011;7666;50.920;4.628;2022-08-05T11:24:15;3.60;;;1.30;;
15130;SDS011;7666;50.920;4.628;2022-08-05T11:30:16;3.37;;;1.30;;
15130;SDS011;7666;50.920;4.628;2022-08-05T11:36:40;2.80;;;1.50;;
15130;SDS011;7666;50.920;4.628;2022-08-05T11:39:47;3.97;;;1.20;;
15130;SDS011;7666;50.920;4.628;2022-08-05T11:42:35;2.33;;;1.00;;
15130;SDS011;7666;50.920;4.628;2022-08-05T11:45:24;4.37;;;1.20;;
15130;SDS011;7666;50.920;4.628;2022-08-05T11:48:10;4.50;;;1.30;;
15130;SDS011;7666;50.920;4.628;2022-08-05T11:50:57;1.30;;;0.83;;
15130;SDS011;7666;50.920;4.628;2022-08-05T11:53:43;3.00;;;1.37;;
15130;SDS011;7666;50.920;4.628;2022-08-05T11:56:43;2.83;;;1.00;;
15130;SDS011;7666;50.920;4.628;2022-08-05T11:59:31;2.37;;;0.97;;
15130;SDS011;7666;50.920;4.628;2022-08-05T12:02:22;3.23;;;1.30;;
15130;SDS011;7666;50.920;4.628;2022-08-05T12:05:23;2.60;;;0.90;;
15130;SDS011;7666;50.920;4.628;2022-08-05T12:08:13;4.17;;;1.03;;
15130;SDS011;7666;50.920;4.628;2022-08-05T12:10:59;2.80;;;0.93;;
15130;SDS011;7666;50.920;4.628;2022-08-05T12:16:41;2.33;;;0.93;;
15130;SDS011;7666;50.920;4.628;2022-08-05T12:19:29;2.33;;;1.00;;
15130;SDS011;7666;50.920;4.628;2022-08-05T12:22:15;2.60;;;0.83;;
15130;SDS011;7666;50.920;4.628;2022-08-05T12:25:06;1.63;;;0.90;;
15130;SDS011;7666;50.920;4.628;2022-08-05T12:27:52;2.60;;;1.00;;
15130;SDS011;7666;50.920;4.628;2022-08-05T12:30:38;3.07;;;0.90;;
15130;SDS011;7666;50.920;4.628;2022-08-05T12:33:24;3.80;;;1.00;;
15130;SDS011;7666;50.920;4.628;2022-08-05T12:36:12;3.37;;;0.90;;
15130;SDS011;7666;50.920;4.628;2022-08-05T12:38:59;2.37;;;0.80;;
15130;SDS011;7666;50.920;4.628;2022-08-05T12:41:45;4.60;;;1.17;;
15130;SDS011;7666;50.920;4.628;2022-08-05T12:44:31;3.33;;;1.03;;
15130;SDS011;7666;50.920;4.628;2022-08-05T12:47:27;2.87;;;1.10;;
15130;SDS011;7666;50.920;4.628;2022-08-05T12:50:14;2.60;;;0.90;;
15130;SDS011;7666;50.920;4.628;2022-08-05T12:53:02;1.83;;;1.10;;
15130;SDS011;7666;50.920;4.628;2022-08-05T12:55:47;2.33;;;1.10;;
15130;SDS011;7666;50.920;4.628;2022-08-05T12:58:33;2.93;;;0.90;;
15130;SDS011;7666;50.920;4.628;2022-08-05T13:01:21;3.30;;;1.00;;
15130;SDS011;7666;50.920;4.628;2022-08-05T13:04:07;3.03;;;0.97;;
15130;SDS011;7666;50.920;4.628;2022-08-05T13:06:55;4.60;;;1.10;;
15130;SDS011;7666;50.920;4.628;2022-08-05T13:12:45;4.63;;;1.07;;
15130;SDS011;7666;50.920;4.628;2022-08-05T13:15:31;3.07;;;0.90;;
15130;SDS011;7666;50.920;4.628;2022-08-05T13:18:17;3.03;;;0.97;;
15130;SDS011;7666;50.920;4.628;2022-08-05T13:21:03;3.03;;;0.63;;
15130;SDS011;7666;50.920;4.628;2022-08-05T13:23:49;2.73;;;0.77;;
15130;SDS011;7666;50.920;4.628;2022-08-05T13:26:35;3.57;;;0.97;;
15130;SDS011;7666;50.920;4.628;2022-08-05T13:29:21;3.67;;;0.80;;
15130;SDS011;7666;50.920;4.628;2022-08-05T13:32:07;3.00;;;0.80;;
15130;SDS011;7666;50.920;4.628;2022-08-05T13:34:53;2.87;;;0.80;;
15130;SDS011;7666;50.920;4.628;2022-08-05T13:37:39;5.50;;;0.87;;
15130;SDS011;7666;50.920;4.628;2022-08-05T13:40:26;3.50;;;0.70;;
15130;SDS011;7666;50.920;4.628;2022-08-05T13:43:12;2.20;;;0.60;;
15130;SDS011;7666;50.920;4.628;2022-08-05T13:45:58;2.13;;;0.57;;
15130;SDS011;7666;50.920;4.628;2022-08-05T13:48:44;4.90;;;0.80;;
15130;SDS011;7666;50.920;4.628;2022-08-05T13:51:31;2.77;;;0.47;;
15130;SDS011;7666;50.920;4.628;2022-08-05T13:54:17;1.83;;;0.60;;
15130;SDS011;7666;50.920;4.628;2022-08-05T13:57:05;3.70;;;0.67;;
15130;SDS011;7666;50.920;4.628;2022-08-05T13:59:51;1.77;;;0.70;;
15130;SDS011;7666;50.920;4.628;2022-08-05T14:02:37;1.37;;;0.70;;
15130;SDS011;7666;50.920;4.628;2022-08-05T14:05:23;1.40;;;0.40;;
15130;SDS011;7666;50.920;4.628;2022-08-05T14:08:09;3.37;;;0.77;;
15130;SDS011;7666;50.920;4.628;2022-08-05T14:10:55;2.33;;;0.50;;
15130;SDS011;7666;50.920;4.628;2022-08-05T14:13:41;2.23;;;0.57;;
15130;SDS011;7666;50.920;4.628;2022-08-05T14:16:27;4.13;;;0.77;;
15130;SDS011;7666;50.920;4.628;2022-08-05T14:19:13;1.90;;;0.50;;
15130;SDS011;7666;50.920;4.628;2022-08-05T14:21:59;4.30;;;0.80;;
15130;SDS011;7666;50.920;4.628;2022-08-05T14:24:45;1.83;;;0.50;;
15130;SDS011;7666;50.920;4.628;2022-08-05T14:27:31;2.20;;;0.50;;
15130;SDS011;7666;50.920;4.628;2022-08-05T14:30:17;1.10;;;0.60;;
15130;SDS011;7666;50.920;4.628;2022-08-05T14:33:03;1.63;;;0.60;;
15130;SDS011;7666;50.920;4.628;2022-08-05T14:35:49;1.07;;;0.47;;
15130;SDS011;7666;50.920;4.628;2022-08-05T14:38:36;2.13;;;0.60;;
15130;SDS011;7666;50.920;4.628;2022-08-05T14:41:22;1.53;;;0.60;;
15130;SDS011;7666;50.920;4.628;2022-08-05T14:44:08;2.70;;;0.53;;
15130;SDS011;7666;50.920;4.628;2022-08-05T14:46:54;1.87;;;0.70;;
15130;SDS011;7666;50.920;4.628;2022-08-05T14:49:40;3.90;;;0.67;;
15130;SDS011;7666;50.920;4.628;2022-08-05T14:52:26;2.50;;;0.77;;
15130;SDS011;7666;50.920;4.628;2022-08-05T14:55:12;1.07;;;0.67;;
15130;SDS011;7666;50.920;4.628;2022-08-05T14:57:57;2.50;;;0.73;;
15130;SDS011;7666;50.920;4.628;2022-08-05T15:00:43;1.60;;;0.67;;
15130;SDS011;7666;50.920;4.628;2022-08-05T15:03:30;1.47;;;0.60;;
15130;SDS011;7666;50.920;4.628;2022-08-05T15:06:16;1.93;;;0.63;;
15130;SDS011;7666;50.920;4.628;2022-08-05T15:09:02;3.03;;;0.67;;
15130;SDS011;7666;50.920;4.628;2022-08-05T15:11:49;4.00;;;0.80;;
15130;SDS011;7666;50.920;4.628;2022-08-05T15:14:35;4.57;;;0.60;;
15130;SDS011;7666;50.920;4.628;2022-08-05T15:17:21;3.37;;;0.70;;
15130;SDS011;7666;50.920;4.628;2022-08-05T15:20:08;1.20;;;0.50;;
15130;SDS011;7666;50.920;4.628;2022-08-05T15:22:54;1.47;;;0.50;;
15130;SDS011;7666;50.920;4.628;2022-08-05T15:25:40;1.87;;;0.70;;
15130;SDS011;7666;50.920;4.628;2022-08-05T15:28:27;3.83;;;0.80;;
15130;SDS011;7666;50.920;4.628;2022-08-05T15:31:12;3.23;;;0.87;;
15130;SDS011;7666;50.920;4.628;2022-08-05T15:33:58;1.77;;;0.60;;
15130;SDS011;7666;50.920;4.628;2022-08-05T15:36:44;2.90;;;0.80;;
15130;SDS011;7666;50.920;4.628;2022-08-05T15:39:30;5.37;;;1.20;;
15130;SDS011;7666;50.920;4.628;2022-08-05T15:42:16;2.87;;;0.80;;
15130;SDS011;7666;50.920;4.628;2022-08-05T15:45:02;2.30;;;0.60;;
15130;SDS011;7666;50.920;4.628;2022-08-05T15:47:49;3.77;;;0.80;;
15130;SDS011;7666;50.920;4.628;2022-08-05T15:50:35;2.13;;;0.80;;
15130;SDS011;7666;50.920;4.628;2022-08-05T15:53:21;2.13;;;0.70;;
15130;SDS011;7666;50.920;4.628;2022-08-05T15:56:07;4.10;;;0.80;;
15130;SDS011;7666;50.920;4.628;2022-08-05T15:58:53;2.47;;;0.70;;
15130;SDS011;7666;50.920;4.628;2022-08-05T16:01:39;2.07;;;0.60;;
15130;SDS011;7666;50.920;4.628;2022-08-05T16:04:25;2.70;;;0.60;;
15130;SDS011;7666;50.920;4.628;2022-08-05T16:07:11;2.53;;;0.77;;
15130;SDS011;7666;50.920;4.628;2022-08-05T16:09:57;2.07;;;0.70;;
15130;SDS011;7666;50.920;4.628;2022-08-05T16:12:43;2.30;;;0.60;;
15130;SDS011;7666;50.920;4.628;2022-08-05T16:15:29;1.53;;;0.70;;
15130;SDS011;7666;50.920;4.628;2022-08-05T16:18:15;1.93;;;0.73;;
15130;SDS011;7666;50.920;4.628;2022-08-05T16:21:01;3.87;;;0.70;;
15130;SDS011;7666;50.920;4.628;2022-08-05T16:23:47;2.57;;;1.30;;
15130;SDS011;7666;50.920;4.628;2022-08-05T16:26:33;5.27;;;0.90;;
15130;SDS011;7666;50.920;4.628;2022-08-05T16:29:38;3.87;;;0.80;;
15130;SDS011;7666;50.920;4.628;2022-08-05T16:32:24;4.53;;;1.23;;
15130;SDS011;7666;50.920;4.628;2022-08-05T16:35:10;4.67;;;1.37;;
15130;SDS011;7666;50.920;4.628;2022-08-05T16:37:56;3.50;;;0.70;;
15130;SDS011;7666;50.920;4.628;2022-08-05T16:40:42;1.53;;;0.70;;
15130;SDS011;7666;50.920;4.628;2022-08-05T16:43:29;2.73;;;1.33;;
15130;SDS011;7666;50.920;4.628;2022-08-05T16:46:17;4.63;;;1.47;;
15130;SDS011;7666;50.920;4.628;2022-08-05T16:49:03;3.10;;;0.77;;
15130;SDS011;7666;50.920;4.628;2022-08-05T16:51:49;4.27;;;0.97;;
15130;SDS011;7666;50.920;4.628;2022-08-05T16:54:35;4.30;;;0.73;;
15130;SDS011;7666;50.920;4.628;2022-08-05T16:57:21;4.37;;;1.03;;
15130;SDS011;7666;50.920;4.628;2022-08-05T17:00:10;1.67;;;0.70;;
15130;SDS011;7666;50.920;4.628;2022-08-05T17:02:57;3.90;;;0.70;;
15130;SDS011;7666;50.920;4.628;2022-08-05T17:05:43;1.47;;;0.80;;
15130;SDS011;7666;50.920;4.628;2022-08-05T17:08:29;2.73;;;0.80;;
15130;SDS011;7666;50.920;4.628;2022-08-05T17:11:16;3.17;;;0.80;;
15130;SDS011;7666;50.920;4.628;2022-08-05T17:14:02;3.80;;;0.90;;
15130;SDS011;7666;50.920;4.628;2022-08-05T17:16:47;3.63;;;0.80;;
15130;SDS011;7666;50.920;4.628;2022-08-05T17:19:33;4.47;;;0.97;;
15130;SDS011;7666;50.920;4.628;2022-08-05T17:22:19;2.27;;;0.73;;
15130;SDS011;7666;50.920;4.628;2022-08-05T17:25:05;3.27;;;0.73;;
15130;SDS011;7666;50.920;4.628;2022-08-05T17:27:52;4.63;;;0.90;;
15130;SDS011;7666;50.920;4.628;2022-08-05T17:30:38;4.03;;;0.93;;
15130;SDS011;7666;50.920;4.628;2022-08-05T17:33:24;3.33;;;0.70;;
15130;SDS011;7666;50.920;4.628;2022-08-05T17:36:10;4.57;;;0.83;;
15130;SDS011;7666;50.920;4.628;2022-08-05T17:38:56;3.23;;;0.77;;
15130;SDS011;7666;50.920;4.628;2022-08-05T17:41:41;3.97;;;1.00;;
15130;SDS011;7666;50.920;4.628;2022-08-05T17:44:27;3.03;;;1.00;;
15130;SDS011;7666;50.920;4.628;2022-08-05T17:47:14;2.40;;;0.90;;
15130;SDS011;7666;50.920;4.628;2022-08-05T17:50:00;5.77;;;1.03;;
15130;SDS011;7666;50.920;4.628;2022-08-05T17:52:46;6.63;;;1.27;;
15130;SDS011;7666;50.920;4.628;2022-08-05T17:55:32;3.97;;;1.03;;
15130;SDS011;7666;50.920;4.628;2022-08-05T17:58:18;4.10;;;1.10;;
15130;SDS011;7666;50.920;4.628;2022-08-05T18:01:04;4.57;;;1.03;;
15130;SDS011;7666;50.920;4.628;2022-08-05T18:03:51;3.53;;;1.03;;
15130;SDS011;7666;50.920;4.628;2022-08-05T18:06:37;3.80;;;1.00;;
15130;SDS011;7666;50.920;4.628;2022-08-05T18:09:23;5.00;;;1.13;;
15130;SDS011;7666;50.920;4.628;2022-08-05T18:12:11;4.87;;;1.20;;
15130;SDS011;7666;50.920;4.628;2022-08-05T18:14:57;5.10;;;1.30;;
15130;SDS011;7666;50.920;4.628;2022-08-05T18:17:43;10.93;;;1.83;;